Laurel, NY (11948)

1:17 AM EDT on September 25, 2016 (GMT -0400)
outeast | | Change Station

Elev 23 ft 40.95 °N, 72.56 °W | Updated 9 minutes ago

Clear
Clear
55.9 °F
Feels Like 55.9 °F
N
1.0
Wind Variable Wind from NE
Gusts 5.0 mph

Today
High -- | Low -- °F
--% Chance of Precip.
Yesterday
High -- | Low -- °F
Precip. -- in
Pressure 30.13 in
Visibility 10.0 miles
Clouds Clear
Dew Point 47 °F
Humidity 71%
Rainfall 0.00 in
Snow Depth Not available.
6:41 AM 6:41 PM
Waning Crescent, 31% visible
METAR KFOK 250453Z AUTO 00000KT 10SM CLR 06/04 A3013 RMK AO2 SLP203 T00560039 402000050 TSNO
Pressure 30.13 in
Visibility 10.0 miles
Clouds Clear
Dew Point 47 °F
Humidity 71%
Rainfall 0.00 in
Snow Depth Not available.
6:41 AM 6:41 PM
Waning Crescent, 31% visible
METAR KFOK 250453Z AUTO 00000KT 10SM CLR 06/04 A3013 RMK AO2 SLP203 T00560039 402000050 TSNO

10-Day Weather Forecast

Almanac

Astronomy

Sep. 25, 2016 Rise Set
Actual Time
Civil Twilight
Nautical Twilight
Astronomical Twilight
Moon
Length of Visible Light
Length of Day
Tomorrow will be .
, % of the Moon is Illuminated

Today's Extremes

State Highs State Lows

Community

WunderPhotos

Upload Photos

1,941,554 photos uploaded!

WunderBlog® & News

Nearby

Air Quality

  Air Quality AQ Index Pollutant
Not available.

Snow Depth

Station Depth Elevation

Earthquake Activity

City Distance Mag. Time & Date
Minimum magnitude displayed is 2.5.

Coastal Water Temperatures

Place Temperature

Stations

Nearby Weather Stations

Station Location Temp. Windchill Dew Point Humidity Wind Precip. Elev Updated Type
                   

Watches & Warnings

There are currently no watches in effect.